Time;durP1;ratioP1;P1;durP2;ratioP2;P2;SDS_P1;SDS_P2;PMS_P1;PMS_P2;Temp;Humidity;BMP_temperature;BMP_pressure;BME280_temperature;BME280_humidity;BME280_pressure;Samples;Min_cycle;Max_cycle;Signal;HPM_P1;HPM_P2
2023/08/17 00:01:39;;;;;;;0.00;0.00;;;;;;;15.46;79.08;100728.91;5037039;28;20025;-80
2023/08/17 00:04:04;;;;;;;0.00;0.00;;;;;;;15.33;79.44;100720.22;5006021;28;20035;-81
2023/08/17 00:06:37;;;;;;;0.00;0.00;;;;;;;15.31;79.42;100721.63;5016482;28;20128;-82
2023/08/17 00:09:03;;;;;;;0.00;0.00;;;;;;;15.22;79.38;100706.84;5029099;28;20037;-80
2023/08/17 00:11:29;;;;;;;0.00;0.00;;;;;;;15.25;79.12;100720.03;5019164;28;20026;-81
2023/08/17 00:13:54;;;;;;;0.00;0.00;;;;;;;15.26;79.86;100729.91;5032759;28;20966;-80
2023/08/17 00:16:20;;;;;;;0.00;0.00;;;;;;;15.17;79.64;100716.78;5019964;28;20033;-80
2023/08/17 00:18:45;;;;;;;0.00;0.00;;;;;;;15.12;79.30;100722.31;5031200;28;20032;-80
2023/08/17 00:21:13;;;;;;;0.00;0.00;;;;;;;15.03;79.66;100715.00;5035176;28;20033;-81
2023/08/17 00:23:41;;;;;;;0.00;0.00;;;;;;;15.02;79.98;100719.66;5023370;28;20029;-82
2023/08/17 00:26:11;;;;;;;0.00;0.00;;;;;;;15.01;80.33;100723.56;5058096;28;20021;-79
2023/08/17 00:28:39;;;;;;;0.00;0.00;;;;;;;14.97;80.30;100711.47;5041169;28;20032;-82
2023/08/17 00:31:05;;;;;;;0.00;0.00;;;;;;;14.86;80.41;100701.63;5021996;28;20048;-81
2023/08/17 00:33:31;;;;;;;0.00;0.00;;;;;;;14.80;80.69;100693.41;5041130;28;20017;-82
2023/08/17 00:35:56;;;;;;;0.00;0.00;;;;;;;14.87;80.57;100717.06;5054117;28;20052;-82
2023/08/17 00:38:22;;;;;;;0.00;0.00;;;;;;;14.77;80.97;100702.25;5032399;28;20037;-82
2023/08/17 00:40:47;;;;;;;0.00;0.00;;;;;;;14.75;81.30;100703.66;5074887;28;20041;-80
2023/08/17 00:43:13;;;;;;;0.00;0.00;;;;;;;14.72;81.27;100710.56;5041913;28;20137;-81
2023/08/17 00:45:41;;;;;;;0.00;0.00;;;;;;;14.65;81.30;100710.06;5040401;28;20124;-82
2023/08/17 00:48:08;;;;;;;0.00;0.00;;;;;;;14.73;81.63;100711.38;5040145;28;20040;-83
2023/08/17 00:50:36;;;;;;;0.00;0.00;;;;;;;14.68;81.60;100720.50;5079477;28;20021;-81
2023/08/17 00:53:03;;;;;;;0.00;0.00;;;;;;;14.56;81.30;100700.72;5044657;28;20029;-82
2023/08/17 00:55:29;;;;;;;0.00;0.00;;;;;;;14.61;81.31;100708.94;5045897;28;20426;-81
2023/08/17 00:57:56;;;;;;;0.00;0.00;;;;;;;14.66;81.48;100719.97;5023814;28;20076;-82
2023/08/17 01:00:27;;;;;;;0.00;0.00;;;;;;;14.58;81.44;100717.78;5019059;28;20029;-83
2023/08/17 01:02:55;;;;;;;0.00;0.00;;;;;;;14.54;81.41;100716.72;5037549;28;20036;-81
2023/08/17 01:05:21;;;;;;;0.00;0.00;;;;;;;14.54;81.56;100719.47;5035294;28;20436;-81
2023/08/17 01:07:50;;;;;;;0.00;0.00;;;;;;;14.48;81.84;100721.41;5081613;28;20032;-81
2023/08/17 01:10:16;;;;;;;0.00;0.00;;;;;;;14.46;81.88;100738.22;5039386;28;20020;-81
2023/08/17 01:13:05;;;;;;;0.00;0.00;;;;;;;14.41;82.24;100727.25;5037623;28;20024;-82
2023/08/17 01:15:42;;;;;;;0.00;0.00;;;;;;;14.37;82.28;100720.66;5051007;28;20032;-80
2023/08/17 01:18:21;;;;;;;0.00;0.00;;;;;;;14.27;82.31;100712.47;5029240;28;20036;-79
2023/08/17 01:20:49;;;;;;;0.00;0.00;;;;;;;14.32;81.73;100720.69;5057238;28;20021;-79
2023/08/17 01:23:14;;;;;;;0.00;0.00;;;;;;;14.16;82.20;100703.44;5053658;28;20025;-78
2023/08/17 01:25:53;;;;;;;0.00;0.00;;;;;;;14.29;82.27;100718.50;5032361;28;20064;-79
2023/08/17 01:28:19;;;;;;;0.00;0.00;;;;;;;14.22;82.83;100715.25;5036804;28;20029;-79
2023/08/17 01:31:34;;;;;;;0.00;0.00;;;;;;;14.24;82.60;100721.31;5013855;28;20028;-79
2023/08/17 01:34:18;;;;;;;0.00;0.00;;;;;;;14.09;83.02;100714.78;5025029;28;20029;-78
2023/08/17 01:36:50;;;;;;;0.00;0.00;;;;;;;14.05;83.14;100724.69;5070410;28;20025;-80
2023/08/17 01:39:19;;;;;;;0.00;0.00;;;;;;;13.95;83.03;100719.22;5049760;28;20033;-79
2023/08/17 01:41:47;;;;;;;0.00;0.00;;;;;;;13.91;82.87;100712.66;5053089;28;20493;-81
2023/08/17 01:44:13;;;;;;;0.00;0.00;;;;;;;13.85;83.06;100702.78;5051795;28;20029;-80
2023/08/17 01:46:39;;;;;;;0.00;0.00;;;;;;;13.84;83.11;100701.13;5039029;28;20552;-81
2023/08/17 01:49:04;;;;;;;0.00;0.00;;;;;;;13.91;83.51;100707.16;5032208;28;20116;-79
2023/08/17 01:51:30;;;;;;;0.00;0.00;;;;;;;13.86;83.23;100705.25;5049840;28;20395;-80
2023/08/17 01:53:55;;;;;;;0.00;0.00;;;;;;;13.87;83.67;100711.56;5033704;28;20033;-78
2023/08/17 01:56:23;;;;;;;0.00;0.00;;;;;;;13.70;83.93;100690.75;4999004;28;20487;-80
2023/08/17 01:58:48;;;;;;;0.00;0.00;;;;;;;13.73;84.31;100701.16;5033188;28;20044;-79
2023/08/17 02:01:14;;;;;;;0.00;0.00;;;;;;;13.61;84.11;100682.25;5023079;28;20025;-83
2023/08/17 02:03:39;;;;;;;0.00;0.00;;;;;;;13.65;84.36;100693.50;5068396;28;20053;-79
2023/08/17 02:06:07;;;;;;;0.00;0.00;;;;;;;13.81;84.92;100727.25;5060787;28;20505;-78
2023/08/17 02:08:34;;;;;;;0.00;0.00;;;;;;;13.74;84.63;100719.31;5053845;28;20033;-78
2023/08/17 02:10:59;;;;;;;0.00;0.00;;;;;;;13.76;85.41;100733.59;5037879;28;20031;-78
2023/08/17 02:13:27;;;;;;;0.00;0.00;;;;;;;13.70;85.26;100723.72;5052517;28;20029;-79
2023/08/17 02:15:52;;;;;;;0.00;0.00;;;;;;;13.73;85.48;100716.84;5052992;28;20030;-78
2023/08/17 02:18:18;;;;;;;0.00;0.00;;;;;;;13.65;85.20;100715.47;5049500;28;20379;-78
2023/08/17 02:20:43;;;;;;;0.00;0.00;;;;;;;13.74;85.88;100734.97;5053057;28;20032;-80
2023/08/17 02:23:16;;;;;;;0.00;0.00;;;;;;;13.63;85.38;100717.69;5035586;28;20113;-78
2023/08/17 02:25:44;;;;;;;0.00;0.00;;;;;;;13.72;85.69;100731.69;5021456;28;20143;-78
2023/08/17 02:28:09;;;;;;;0.00;0.00;;;;;;;13.74;86.08;100730.31;5052049;28;20021;-78
2023/08/17 02:30:37;;;;;;;0.00;0.00;;;;;;;13.75;86.30;100725.63;5022785;28;20025;-78
2023/08/17 02:33:02;;;;;;;0.00;0.00;;;;;;;13.69;86.54;100721.25;5002905;28;20036;-78
2023/08/17 02:35:28;;;;;;;0.00;0.00;;;;;;;13.67;87.21;100728.94;5016808;28;20033;-79
2023/08/17 02:37:53;;;;;;;0.00;0.00;;;;;;;13.55;86.95;100715.50;5031881;28;20039;-82
2023/08/17 02:40:24;;;;;;;0.00;0.00;;;;;;;13.47;87.26;100700.41;5053845;28;20087;-82
2023/08/17 02:42:49;;;;;;;0.00;0.00;;;;;;;13.56;87.11;100711.66;5033237;28;20048;-81
2023/08/17 02:45:15;;;;;;;0.00;0.00;;;;;;;13.55;87.27;100727.34;5042909;28;20025;-82
2023/08/17 02:47:55;;;;;;;0.00;0.00;;;;;;;13.49;87.55;100724.88;5030574;28;20041;-82
2023/08/17 02:50:23;;;;;;;0.00;0.00;;;;;;;13.43;87.92;100702.91;5032294;28;20465;-82
2023/08/17 02:52:48;;;;;;;0.00;0.00;;;;;;;13.48;87.95;100714.97;5036042;28;20037;-83
2023/08/17 02:55:14;;;;;;;0.00;0.00;;;;;;;13.46;87.99;100712.50;5001461;28;20557;-82
2023/08/17 02:57:39;;;;;;;0.00;0.00;;;;;;;13.55;88.58;100726.50;5033625;28;20055;-81
2023/08/17 03:00:05;;;;;;;0.00;0.00;;;;;;;13.50;88.53;100701.78;5033096;28;20075;-81
2023/08/17 03:02:30;;;;;;;0.00;0.00;;;;;;;13.52;88.04;100699.59;5018130;28;20025;-81
2023/08/17 03:04:56;;;;;;;0.00;0.00;;;;;;;13.51;88.33;100689.72;4999413;28;20029;-83
2023/08/17 03:07:21;;;;;;;0.00;0.00;;;;;;;13.59;88.66;100705.59;5001145;28;20035;-79
2023/08/17 03:09:47;;;;;;;0.00;0.00;;;;;;;13.60;88.52;100712.75;5047189;28;20112;-82
2023/08/17 03:12:12;;;;;;;0.00;0.00;;;;;;;13.64;88.21;100702.00;5044878;28;20128;-79
2023/08/17 03:14:38;;;;;;;0.00;0.00;;;;;;;13.75;88.41;100698.94;5030728;28;20120;-79
2023/08/17 03:17:03;;;;;;;0.00;0.00;;;;;;;14.01;88.20;100711.78;5018390;28;20440;-79
2023/08/17 03:19:29;;;;;;;0.00;0.00;;;;;;;14.06;87.51;100709.84;5013289;28;20037;-78
2023/08/17 03:21:54;;;;;;;0.00;0.00;;;;;;;13.99;87.51;100692.81;5039748;28;20049;-78
2023/08/17 03:24:19;;;;;;;0.00;0.00;;;;;;;14.05;87.71;100708.19;5012420;28;20406;-77
2023/08/17 03:26:45;;;;;;;0.00;0.00;;;;;;;13.90;88.29;100697.25;5034700;28;20371;-78
2023/08/17 03:29:10;;;;;;;0.00;0.00;;;;;;;13.96;88.88;100709.88;5036654;28;20390;-80
2023/08/17 03:31:36;;;;;;;0.00;0.00;;;;;;;13.75;88.58;100689.91;5026213;28;20369;-80
2023/08/17 03:34:04;;;;;;;0.00;0.00;;;;;;;13.83;88.92;100699.47;5055627;28;20028;-79
2023/08/17 03:36:32;;;;;;;0.00;0.00;;;;;;;13.88;89.11;100702.22;5033479;28;20036;-78
2023/08/17 03:38:57;;;;;;;0.00;0.00;;;;;;;13.90;89.36;100684.34;5030344;28;20031;-77
2023/08/17 03:41:23;;;;;;;0.00;0.00;;;;;;;14.07;88.68;100694.97;5039354;28;20111;-81
2023/08/17 03:43:51;;;;;;;0.00;0.00;;;;;;;14.37;89.38;100698.66;5020799;28;20513;-78
2023/08/17 03:46:16;;;;;;;0.00;0.00;;;;;;;14.47;88.50;100679.34;5045726;28;20055;-78
2023/08/17 03:48:42;;;;;;;0.00;0.00;;;;;;;14.62;88.41;100683.13;5033128;28;20017;-79
2023/08/17 03:51:07;;;;;;;0.00;0.00;;;;;;;14.77;88.50;100682.97;5032177;28;20563;-79
2023/08/17 03:53:33;;;;;;;0.00;0.00;;;;;;;14.86;88.19;100671.34;5032903;28;20079;-78
2023/08/17 03:55:58;;;;;;;0.00;0.00;;;;;;;14.95;87.97;100669.59;5030662;28;20033;-80
2023/08/17 03:58:26;;;;;;;0.00;0.00;;;;;;;15.12;87.73;100678.25;5028883;28;20116;-78
2023/08/17 04:00:52;;;;;;;0.00;0.00;;;;;;;15.28;87.49;100678.94;5038275;28;20108;-77
2023/08/17 04:03:22;;;;;;;0.00;0.00;;;;;;;15.36;87.44;100683.81;5032533;28;20109;-79
2023/08/17 04:05:47;;;;;;;0.00;0.00;;;;;;;15.38;87.40;100680.75;5032206;28;20443;-79
2023/08/17 04:08:12;;;;;;;0.00;0.00;;;;;;;15.57;87.35;100680.00;5032073;28;20025;-79
2023/08/17 04:10:39;;;;;;;0.00;0.00;;;;;;;15.67;87.20;100690.91;5047486;28;20036;-78
2023/08/17 04:13:04;;;;;;;0.00;0.00;;;;;;;15.62;87.62;100672.47;5015375;28;20478;-79
2023/08/17 04:15:30;;;;;;;0.00;0.00;;;;;;;15.71;87.35;100676.25;5024662;28;20022;-79
2023/08/17 04:17:55;;;;;;;0.00;0.00;;;;;;;15.91;87.48;100690.09;5013832;28;20037;-79
2023/08/17 04:20:38;;;;;;;0.00;0.00;;;;;;;15.84;87.46;100677.50;5014207;28;20073;-79
2023/08/17 04:23:03;;;;;;;0.00;0.00;;;;;;;16.04;87.48;100694.88;5062766;28;20013;-77
2023/08/17 04:25:29;;;;;;;0.00;0.00;;;;;;;16.08;87.47;100695.94;5039676;28;20033;-79
2023/08/17 04:27:55;;;;;;;0.00;0.00;;;;;;;16.11;87.48;100697.31;4995440;28;20113;-79
2023/08/17 04:30:31;;;;;;;0.00;0.00;;;;;;;15.99;87.66;100664.59;5024146;28;20031;-79
2023/08/17 04:32:57;;;;;;;0.00;0.00;;;;;;;16.12;87.89;100677.69;5036077;28;20033;-79
2023/08/17 04:35:22;;;;;;;0.00;0.00;;;;;;;16.10;87.55;100668.88;5019761;28;20020;-79
2023/08/17 04:37:48;;;;;;;0.00;0.00;;;;;;;16.17;87.61;100672.09;5048212;28;20025;-79
2023/08/17 04:40:14;;;;;;;0.00;0.00;;;;;;;16.24;86.82;100671.72;5015733;28;20037;-78
2023/08/17 04:42:39;;;;;;;0.00;0.00;;;;;;;16.32;87.37;100678.50;5030118;28;20057;-81
2023/08/17 04:45:06;;;;;;;0.00;0.00;;;;;;;16.37;87.21;100684.78;5017285;28;20799;-80
2023/08/17 04:47:31;;;;;;;0.00;0.00;;;;;;;16.35;87.76;100675.97;5032442;28;20020;-80
2023/08/17 04:49:57;;;;;;;0.00;0.00;;;;;;;16.36;87.19;100674.03;5032802;28;20363;-81
2023/08/17 04:52:24;;;;;;;0.00;0.00;;;;;;;16.37;87.39;100675.69;5048468;28;20055;-81
2023/08/17 04:54:50;;;;;;;0.00;0.00;;;;;;;16.48;87.21;100690.13;5036809;28;20025;-80
2023/08/17 04:57:15;;;;;;;0.00;0.00;;;;;;;16.34;87.42;100666.06;5054213;28;20036;-79
2023/08/17 04:59:45;;;;;;;0.00;0.00;;;;;;;16.51;87.12;100682.06;5036724;28;20501;-81
2023/08/17 05:02:11;;;;;;;0.00;0.00;;;;;;;16.58;87.31;100692.72;5016477;28;20064;-79
2023/08/17 05:04:37;;;;;;;0.00;0.00;;;;;;;16.60;86.82;100690.47;5052544;28;20029;-80
2023/08/17 05:07:02;;;;;;;0.00;0.00;;;;;;;16.61;87.38;100691.31;5046092;28;20123;-79
2023/08/17 05:09:30;;;;;;;0.00;0.00;;;;;;;16.69;87.17;100685.94;5030843;28;20040;-81
2023/08/17 05:11:55;;;;;;;0.00;0.00;;;;;;;16.71;87.09;100685.63;5055146;28;20106;-80
2023/08/17 05:14:26;;;;;;;0.00;0.00;;;;;;;16.70;86.84;100682.03;5034269;28;20021;-79
2023/08/17 05:16:52;;;;;;;0.00;0.00;;;;;;;16.68;86.57;100669.69;5040109;28;20017;-80
2023/08/17 05:19:17;;;;;;;0.00;0.00;;;;;;;16.72;86.88;100665.19;5022327;28;20043;-80
2023/08/17 05:21:45;;;;;;;0.00;0.00;;;;;;;16.88;86.75;100680.41;5023467;28;20093;-80
2023/08/17 05:24:10;;;;;;;0.00;0.00;;;;;;;16.95;86.27;100681.94;5033828;28;20044;-78
2023/08/17 05:26:38;;;;;;;0.00;0.00;;;;;;;16.93;86.29;100677.53;5044762;28;20029;-81
2023/08/17 05:29:04;;;;;;;0.00;0.00;;;;;;;17.04;86.42;100688.41;5018988;28;20437;-81
2023/08/17 05:31:31;;;;;;;0.00;0.00;;;;;;;16.95;86.00;100673.66;5065961;28;20052;-79
2023/08/17 05:33:57;;;;;;;0.00;0.00;;;;;;;17.05;86.06;100695.59;5028340;28;20498;-81
2023/08/17 05:36:22;;;;;;;0.00;0.00;;;;;;;17.01;86.24;100680.72;5038164;28;20029;-79
2023/08/17 05:38:48;;;;;;;0.00;0.00;;;;;;;17.09;86.25;100691.91;5054812;28;20025;-78
2023/08/17 05:41:13;;;;;;;0.00;0.00;;;;;;;17.08;85.81;100694.97;5025924;28;20478;-81
2023/08/17 05:43:46;;;;;;;0.00;0.00;;;;;;;17.17;85.83;100698.69;5035205;28;20053;-79
2023/08/17 05:46:11;;;;;;;0.00;0.00;;;;;;;17.19;85.50;100696.44;5035456;28;20059;-80
2023/08/17 05:48:39;;;;;;;0.00;0.00;;;;;;;17.18;85.37;100689.28;5063238;28;20021;-79
2023/08/17 05:51:04;;;;;;;0.00;0.00;;;;;;;17.22;85.39;100684.78;5048206;28;20025;-80
2023/08/17 05:53:30;;;;;;;0.00;0.00;;;;;;;17.28;85.07;100689.06;5020983;28;20083;-78
2023/08/17 05:55:55;;;;;;;0.00;0.00;;;;;;;17.30;84.91;100690.72;5039978;28;20032;-81
2023/08/17 05:58:24;;;;;;;0.00;0.00;;;;;;;17.33;85.41;100688.16;5020828;28;20082;-80
2023/08/17 06:00:49;;;;;;;0.00;0.00;;;;;;;17.26;84.76;100666.47;5049161;28;20063;-82
2023/08/17 06:03:15;;;;;;;0.00;0.00;;;;;;;17.40;84.70;100691.34;5048414;28;20110;-82
2023/08/17 06:05:42;;;;;;;0.00;0.00;;;;;;;17.37;85.02;100675.38;5037168;28;20873;-80
2023/08/17 06:08:17;;;;;;;0.00;0.00;;;;;;;17.46;84.96;100672.72;5038348;28;20044;-79
2023/08/17 06:10:42;;;;;;;0.00;0.00;;;;;;;17.57;84.52;100673.34;5026452;28;20017;-79
2023/08/17 06:13:08;;;;;;;0.00;0.00;;;;;;;17.71;84.03;100673.34;5053047;28;20030;-79
2023/08/17 06:15:33;;;;;;;0.00;0.00;;;;;;;17.97;83.94;100684.72;5000477;28;20033;-75
2023/08/17 06:17:59;;;;;;;0.00;0.00;;;;;;;18.02;83.22;100681.00;5053636;28;20037;-77
2023/08/17 06:20:24;;;;;;;0.00;0.00;;;;;;;18.18;82.23;100687.03;5035992;28;20470;-79
2023/08/17 06:22:50;;;;;;;0.00;0.00;;;;;;;18.14;82.15;100670.25;5054530;28;20029;-80
2023/08/17 06:25:15;;;;;;;0.00;0.00;;;;;;;18.27;81.81;100668.56;5037103;28;20025;-78
2023/08/17 06:27:43;;;;;;;0.00;0.00;;;;;;;18.40;81.47;100678.78;5052916;28;20052;-82
2023/08/17 06:30:22;;;;;;;;;;;;;;;;;;;;;
2023/08/17 06:32:47;;;;;;;0.00;0.00;;;;;;;18.69;80.99;100690.56;5044305;28;20119;-80
2023/08/17 06:35:13;;;;;;;0.00;0.00;;;;;;;18.80;80.24;100689.97;5028461;28;20088;-80
2023/08/17 06:37:39;;;;;;;0.00;0.00;;;;;;;18.88;79.84;100677.38;5016730;28;20021;-80
2023/08/17 06:40:05;;;;;;;0.00;0.00;;;;;;;19.07;79.42;100679.09;5035051;28;20394;-80
2023/08/17 06:42:31;;;;;;;0.00;0.00;;;;;;;19.28;78.72;100680.19;5013054;28;20049;-79
2023/08/17 06:44:57;;;;;;;0.00;0.00;;;;;;;19.31;78.12;100684.28;5047630;28;20033;-78
2023/08/17 06:47:23;;;;;;;0.00;0.00;;;;;;;19.23;78.61;100674.81;5034575;28;20048;-78
2023/08/17 06:49:48;;;;;;;0.00;0.00;;;;;;;19.12;78.64;100682.56;5035718;28;20123;-78
2023/08/17 06:52:13;;;;;;;0.00;0.00;;;;;;;19.14;78.52;100668.38;5029403;28;20021;-77
2023/08/17 06:54:39;;;;;;;0.00;0.00;;;;;;;19.22;78.59;100675.94;5050583;28;20013;-79
2023/08/17 06:57:05;;;;;;;0.00;0.00;;;;;;;19.22;78.07;100670.38;5022310;28;20033;-78
2023/08/17 06:59:33;;;;;;;0.00;0.00;;;;;;;19.39;78.02;100666.06;5032909;28;20027;-78
2023/08/17 07:01:58;;;;;;;0.00;0.00;;;;;;;19.77;77.43;100671.06;5034541;28;20140;-79
2023/08/17 07:04:24;;;;;;;0.00;0.00;;;;;;;20.04;76.02;100670.84;5024022;28;20115;-78
2023/08/17 07:06:49;;;;;;;0.00;0.00;;;;;;;20.33;75.25;100674.94;5013974;28;20033;-77
2023/08/17 07:09:15;;;;;;;0.00;0.00;;;;;;;20.55;74.59;100670.38;5024710;28;20059;-77
2023/08/17 07:11:40;;;;;;;0.00;0.00;;;;;;;20.72;73.85;100670.41;5030669;28;20132;-77
2023/08/17 07:14:08;;;;;;;0.00;0.00;;;;;;;20.90;72.87;100665.63;5016265;28;20029;-76
2023/08/17 07:16:34;;;;;;;0.00;0.00;;;;;;;21.01;72.65;100668.03;5043045;28;20025;-78
2023/08/17 07:19:00;;;;;;;0.00;0.00;;;;;;;21.14;72.60;100667.03;5040877;28;20035;-76
2023/08/17 07:21:26;;;;;;;0.00;0.00;;;;;;;21.31;71.83;100662.56;5061211;28;20025;-78
2023/08/17 07:23:53;;;;;;;0.00;0.00;;;;;;;21.51;70.92;100655.47;5024194;28;20072;-77
2023/08/17 07:26:20;;;;;;;0.00;0.00;;;;;;;21.83;70.18;100667.06;5042075;28;20025;-77
2023/08/17 07:28:45;;;;;;;0.00;0.00;;;;;;;21.94;69.44;100663.56;5025018;28;20048;-78
2023/08/17 07:31:13;;;;;;;0.00;0.00;;;;;;;21.97;68.98;100659.28;5051717;28;20020;-77
2023/08/17 07:33:39;;;;;;;0.00;0.00;;;;;;;22.09;68.44;100662.19;5054657;28;20033;-76
2023/08/17 07:36:05;;;;;;;0.00;0.00;;;;;;;22.33;68.03;100674.63;5034586;28;20051;-76
2023/08/17 07:38:31;;;;;;;0.00;0.00;;;;;;;22.59;67.58;100676.38;5065891;28;20028;-75
2023/08/17 07:40:57;;;;;;;0.00;0.00;;;;;;;22.79;66.67;100674.72;5030732;28;20024;-75
2023/08/17 07:43:23;;;;;;;0.00;0.00;;;;;;;23.06;66.42;100678.88;5055023;28;20045;-75
2023/08/17 07:45:57;;;;;;;0.00;0.00;;;;;;;23.08;65.03;100670.97;5052660;28;20502;-76
2023/08/17 07:48:24;;;;;;;0.00;0.00;;;;;;;23.20;65.16;100669.41;5033547;28;20482;-76
2023/08/17 07:50:51;;;;;;;0.00;0.00;;;;;;;23.09;64.15;100667.03;5028576;28;20032;-76
2023/08/17 07:53:17;;;;;;;0.00;0.00;;;;;;;23.07;64.60;100669.34;5017649;28;20040;-78
2023/08/17 07:55:42;;;;;;;0.00;0.00;;;;;;;23.11;63.73;100670.28;5018294;28;20035;-78
2023/08/17 07:58:08;;;;;;;0.00;0.00;;;;;;;23.23;63.53;100677.06;5004434;28;20462;-78
2023/08/17 08:00:33;;;;;;;0.00;0.00;;;;;;;23.38;63.09;100672.78;5068524;28;20035;-79
2023/08/17 08:02:58;;;;;;;0.00;0.00;;;;;;;23.60;62.49;100675.13;5042483;28;20071;-79
2023/08/17 08:05:24;;;;;;;0.00;0.00;;;;;;;23.92;62.16;100677.34;5036022;28;20041;-80
2023/08/17 08:07:50;;;;;;;0.00;0.00;;;;;;;24.18;60.88;100672.19;5052602;28;20033;-78
2023/08/17 08:10:15;;;;;;;0.00;0.00;;;;;;;24.42;59.88;100670.50;5019718;28;20544;-77
2023/08/17 08:12:41;;;;;;;0.00;0.00;;;;;;;24.56;59.44;100668.13;5033326;28;20088;-78
2023/08/17 08:15:07;;;;;;;0.00;0.00;;;;;;;24.77;59.40;100669.91;5052163;28;20380;-79
2023/08/17 08:17:40;;;;;;;0.00;0.00;;;;;;;25.07;58.58;100666.72;5072583;28;20021;-80
2023/08/17 08:20:06;;;;;;;0.00;0.00;;;;;;;25.49;57.84;100669.00;5051936;28;20049;-79
2023/08/17 08:22:32;;;;;;;0.00;0.00;;;;;;;25.56;56.72;100666.41;5025204;28;20039;-80
2023/08/17 08:24:58;;;;;;;0.00;0.00;;;;;;;25.57;56.32;100667.22;5071509;28;20025;-78
2023/08/17 08:27:24;;;;;;;0.00;0.00;;;;;;;25.63;56.52;100660.16;5020730;28;20066;-77
2023/08/17 08:29:53;;;;;;;0.00;0.00;;;;;;;25.71;55.73;100672.34;5030971;28;20029;-79
2023/08/17 08:32:21;;;;;;;0.00;0.00;;;;;;;25.71;55.04;100673.13;5033629;28;20474;-79
2023/08/17 08:34:47;;;;;;;0.00;0.00;;;;;;;25.72;54.58;100663.56;5040411;28;20028;-80
2023/08/17 08:37:13;;;;;;;0.00;0.00;;;;;;;25.77;54.56;100679.28;5032184;28;20037;-79
2023/08/17 08:39:53;;;;;;;0.00;0.00;;;;;;;25.79;54.36;100679.75;5053102;28;20387;-80
2023/08/17 08:42:20;;;;;;;0.00;0.00;;;;;;;25.67;54.15;100671.44;5030463;28;20055;-79
2023/08/17 08:44:46;;;;;;;0.00;0.00;;;;;;;25.66;54.35;100679.03;5055462;28;20021;-78
2023/08/17 08:47:17;;;;;;;0.00;0.00;;;;;;;25.52;53.87;100671.09;5028032;28;20029;-80
2023/08/17 08:50:03;;;;;;;0.00;0.00;;;;;;;25.41;54.72;100678.44;5033874;28;20013;-78
2023/08/17 08:52:39;;;;;;;0.00;0.00;;;;;;;25.39;54.42;100672.34;5062720;28;20028;-80
2023/08/17 08:55:27;;;;;;;;;;;;;;;;;;;;;
2023/08/17 08:57:56;;;;;;;0.00;0.00;;;;;;;26.10;52.83;100667.66;5058347;28;20657;-77
2023/08/17 09:00:22;;;;;;;0.00;0.00;;;;;;;26.58;51.75;100675.09;5056010;28;20044;-79
2023/08/17 09:02:49;;;;;;;0.00;0.00;;;;;;;27.44;50.96;100687.16;5039075;28;20025;-80
2023/08/17 09:05:21;;;;;;;0.00;0.00;;;;;;;28.91;48.28;100679.97;5057014;28;20073;-79
2023/08/17 09:07:50;;;;;;;0.00;0.00;;;;;;;29.59;44.97;100677.03;5042820;28;20379;-80
2023/08/17 09:10:16;;;;;;;0.00;0.00;;;;;;;29.98;42.90;100676.53;5046274;28;20028;-78
2023/08/17 09:12:46;;;;;;;0.00;0.00;;;;;;;30.11;43.08;100669.34;5050277;28;20049;-78
2023/08/17 09:15:11;;;;;;;0.00;0.00;;;;;;;29.89;42.92;100662.78;5069698;28;20032;-79
2023/08/17 09:17:38;;;;;;;0.00;0.00;;;;;;;29.54;42.74;100681.00;5040824;28;20656;-79
2023/08/17 09:20:04;;;;;;;0.00;0.00;;;;;;;29.15;43.56;100653.28;5038206;28;20064;-77
2023/08/17 09:22:41;;;;;;;0.00;0.00;;;;;;;29.17;44.06;100664.16;5019725;28;20032;-79
2023/08/17 09:25:07;;;;;;;0.00;0.00;;;;;;;29.76;43.36;100658.63;5047660;28;20025;-80
2023/08/17 09:27:33;;;;;;;0.00;0.00;;;;;;;31.57;41.02;100660.91;5042576;28;20029;-79
2023/08/17 09:30:07;;;;;;;0.00;0.00;;;;;;;34.66;35.83;100644.97;5057019;28;20112;-78
2023/08/17 09:32:35;;;;;;;0.00;0.00;;;;;;;36.61;30.92;100651.66;5040015;28;20034;-78
2023/08/17 09:35:05;;;;;;;0.00;0.00;;;;;;;36.56;31.40;100651.38;5034824;28;20373;-79
2023/08/17 09:37:31;;;;;;;0.00;0.00;;;;;;;34.83;31.96;100643.94;5045707;28;20021;-81
2023/08/17 09:39:57;;;;;;;0.00;0.00;;;;;;;33.28;34.36;100656.97;5036305;28;20079;-80
2023/08/17 09:42:23;;;;;;;0.00;0.00;;;;;;;32.29;36.22;100655.09;5050008;28;20061;-81
2023/08/17 09:44:49;;;;;;;0.00;0.00;;;;;;;31.46;37.75;100649.56;5046256;28;20052;-78
2023/08/17 09:47:21;;;;;;;0.00;0.00;;;;;;;30.77;39.00;100651.50;5028748;28;20036;-79
2023/08/17 09:49:53;;;;;;;0.00;0.00;;;;;;;30.10;39.31;100639.53;5033923;28;20147;-78
2023/08/17 09:52:20;;;;;;;0.00;0.00;;;;;;;29.82;39.82;100639.31;5047859;28;20021;-75
2023/08/17 09:54:49;;;;;;;0.00;0.00;;;;;;;29.77;40.19;100638.53;5020608;28;20720;-75
2023/08/17 09:57:16;;;;;;;0.00;0.00;;;;;;;29.52;40.82;100643.97;5060668;28;20033;-79
2023/08/17 09:59:42;;;;;;;0.00;0.00;;;;;;;28.97;40.83;100636.25;5048676;28;20471;-78
2023/08/17 10:02:18;;;;;;;0.00;0.00;;;;;;;28.53;41.47;100642.56;5023796;28;20026;-80
2023/08/17 10:04:49;;;;;;;0.00;0.00;;;;;;;28.45;42.09;100655.72;5052155;28;20128;-78
2023/08/17 10:07:17;;;;;;;0.00;0.00;;;;;;;28.42;42.49;100644.44;5050333;28;20052;-76
2023/08/17 10:09:49;;;;;;;0.00;0.00;;;;;;;28.27;42.25;100652.72;5030070;28;20040;-79
2023/08/17 10:12:16;;;;;;;0.00;0.00;;;;;;;28.41;42.85;100648.44;5050752;28;20025;-77
2023/08/17 10:14:53;;;;;;;0.00;0.00;;;;;;;28.90;42.57;100648.22;5041689;28;20028;-79
2023/08/17 10:17:27;;;;;;;0.00;0.00;;;;;;;29.40;41.21;100631.00;5052049;28;20025;-78
2023/08/17 10:19:58;;;;;;;0.00;0.00;;;;;;;30.55;40.54;100641.34;5038603;28;20017;-76
2023/08/17 10:22:42;;;;;;;0.00;0.00;;;;;;;36.53;33.01;100635.19;5029064;28;20115;-78
2023/08/17 10:25:11;;;;;;;0.00;0.00;;;;;;;41.08;27.25;100626.19;5053716;28;20618;-77
2023/08/17 10:27:39;;;;;;;0.00;0.00;;;;;;;43.51;22.51;100614.44;5049774;28;20029;-77
2023/08/17 10:30:06;;;;;;;0.00;0.00;;;;;;;44.94;21.16;100613.53;5068070;28;20486;-77
2023/08/17 10:32:31;;;;;;;0.00;0.00;;;;;;;45.95;19.86;100621.88;5037280;28;20425;-77
2023/08/17 10:34:58;;;;;;;0.00;0.00;;;;;;;46.31;19.11;100608.06;5005887;28;20029;-78
2023/08/17 10:37:24;;;;;;;0.00;0.00;;;;;;;47.55;18.17;100604.31;5077847;28;20386;-77
2023/08/17 10:39:50;;;;;;;0.00;0.00;;;;;;;48.24;16.77;100618.41;5035811;28;20418;-77
2023/08/17 10:42:31;;;;;;;0.00;0.00;;;;;;;48.57;15.84;100616.03;5038307;28;20041;-77
2023/08/17 10:44:56;;;;;;;0.00;0.00;;;;;;;48.57;15.13;100613.13;5034703;28;20036;-76
2023/08/17 10:47:32;;;;;;;0.00;0.00;;;;;;;49.05;15.17;100623.56;5063493;28;20682;-78
2023/08/17 10:50:22;;;;;;;0.00;0.00;;;;;;;47.79;15.59;100614.66;5034115;28;20029;-76
2023/08/17 10:52:55;;;;;;;0.00;0.00;;;;;;;44.82;17.42;100611.78;5032373;28;20023;-77
2023/08/17 10:55:40;;;;;;;0.00;0.00;;;;;;;40.97;20.40;100611.50;5050268;28;20498;-77
2023/08/17 10:58:11;;;;;;;0.00;0.00;;;;;;;38.18;22.63;100611.00;5033690;28;20404;-77
2023/08/17 11:00:42;;;;;;;0.00;0.00;;;;;;;35.94;25.55;100603.47;5048320;28;20037;-77
2023/08/17 11:03:12;;;;;;;0.00;0.00;;;;;;;34.60;27.13;100597.16;5038001;28;20341;-76
2023/08/17 11:05:46;;;;;;;0.00;0.00;;;;;;;33.96;28.10;100593.13;5051624;28;20575;-78
2023/08/17 11:08:32;;;;;;;0.00;0.00;;;;;;;36.07;27.40;100597.91;5050227;28;21076;-77
2023/08/17 11:11:03;;;;;;;0.00;0.00;;;;;;;37.38;25.14;100586.75;5050118;28;20048;-79
2023/08/17 11:13:33;;;;;;;0.00;0.00;;;;;;;36.29;26.07;100593.41;5047538;28;20029;-77
2023/08/17 11:16:00;;;;;;;0.00;0.00;;;;;;;36.03;26.69;100600.03;5050433;28;20025;-76
2023/08/17 11:18:26;;;;;;;0.00;0.00;;;;;;;37.20;25.12;100592.06;5050858;28;20055;-76
2023/08/17 11:20:51;;;;;;;0.00;0.00;;;;;;;36.55;25.41;100605.03;5029744;28;20021;-79
2023/08/17 11:23:17;;;;;;;0.00;0.00;;;;;;;35.41;27.41;100604.03;5034395;28;20079;-77
2023/08/17 11:25:43;;;;;;;0.00;0.00;;;;;;;34.16;28.71;100604.63;5052732;28;20112;-77
2023/08/17 11:28:09;;;;;;;0.00;0.00;;;;;;;32.69;30.57;100603.97;5037274;28;20028;-77
2023/08/17 11:30:37;;;;;;;0.00;0.00;;;;;;;31.17;33.02;100602.75;5031174;28;20040;-74